Time;durP1;ratioP1;P1;durP2;ratioP2;P2;SDS_P1;SDS_P2;PMS_P1;PMS_P2;Temp;Humidity;BMP_temperature;BMP_pressure;BME280_temperature;BME280_humidity;BME280_pressure;Samples;Min_cycle;Max_cycle;Signal;HPM_P1;HPM_P2
2022/04/28 00:00:46;;;;;;;7.85;3.17;;;;;;;14.51;61.80;99443.56;4991971;28;20481;-74
2022/04/28 00:03:12;;;;;;;7.75;4.03;;;;;;;14.96;60.93;99447.13;4992685;28;20023;-74
2022/04/28 00:05:38;;;;;;;8.57;4.88;;;;;;;14.95;60.54;99445.47;4977471;28;20021;-74
2022/04/28 00:08:05;;;;;;;4.20;3.70;;;;;;;14.93;60.18;99436.59;4992049;28;20041;-74
2022/04/28 00:10:31;;;;;;;5.40;4.13;;;;;;;14.82;60.34;99449.56;4974526;28;20458;-74
2022/04/28 00:12:57;;;;;;;6.53;3.80;;;;;;;14.77;60.81;99447.06;4991983;28;20050;-74
2022/04/28 00:15:22;;;;;;;8.10;3.95;;;;;;;14.68;61.24;99431.13;4996611;28;20109;-74
2022/04/28 00:17:48;;;;;;;8.07;4.00;;;;;;;14.60;61.66;99437.78;4974571;28;20076;-74
2022/04/28 00:20:13;;;;;;;5.47;4.20;;;;;;;14.57;61.54;99436.50;4992074;28;20028;-74
2022/04/28 00:22:39;;;;;;;5.95;4.13;;;;;;;14.63;60.27;99448.31;4974528;28;20501;-74
2022/04/28 00:25:05;;;;;;;8.02;4.43;;;;;;;14.55;60.25;99450.13;4991897;28;20057;-74
2022/04/28 00:27:33;;;;;;;8.02;4.32;;;;;;;14.38;60.49;99433.56;5008489;28;20026;-74
2022/04/28 00:29:59;;;;;;;9.82;4.28;;;;;;;13.97;62.18;99442.13;4993771;28;20036;-74
2022/04/28 00:32:24;;;;;;;13.68;10.57;;;;;;;13.57;63.33;99430.56;5011381;28;20053;-74
2022/04/28 00:34:50;;;;;;;16.77;11.27;;;;;;;13.48;64.26;99449.56;5000109;28;20042;-74
2022/04/28 00:37:15;;;;;;;14.00;9.77;;;;;;;13.13;65.42;99456.50;4991577;28;20109;-74
2022/04/28 00:39:41;;;;;;;14.50;8.57;;;;;;;12.67;67.34;99450.19;4992234;28;20023;-74
2022/04/28 00:42:09;;;;;;;13.15;5.63;;;;;;;12.48;68.22;99451.56;4991744;28;20023;-74
2022/04/28 00:44:34;;;;;;;5.38;4.43;;;;;;;11.78;70.25;99444.69;4974218;28;20512;-74
2022/04/28 00:47:00;;;;;;;11.88;4.97;;;;;;;11.90;70.32;99441.13;4974320;28;20116;-74
2022/04/28 00:52:09;;;;;;;8.30;5.53;;;;;;;12.49;67.56;99440.00;4991738;28;20125;-74
2022/04/28 00:54:35;;;;;;;7.55;5.15;;;;;;;12.14;68.57;99450.81;4991586;28;20109;-74
2022/04/28 00:57:02;;;;;;;10.07;4.55;;;;;;;12.31;68.82;99450.63;4974203;28;20033;-74
2022/04/28 00:59:29;;;;;;;6.43;4.50;;;;;;;12.59;67.69;99437.94;4991691;28;20044;-74
2022/04/28 01:01:54;;;;;;;12.68;5.30;;;;;;;12.07;69.69;99440.19;4977167;28;20072;-74
2022/04/28 01:04:20;;;;;;;7.78;4.60;;;;;;;12.24;69.26;99450.34;4993845;28;20026;-73
2022/04/28 01:06:46;;;;;;;7.93;4.80;;;;;;;12.26;68.63;99442.44;4995260;28;20105;-74
2022/04/28 01:09:14;;;;;;;7.20;5.10;;;;;;;12.06;69.94;99441.31;4996475;28;20030;-74
2022/04/28 01:11:41;;;;;;;11.40;6.28;;;;;;;11.80;70.14;99442.38;5008407;28;20034;-74
2022/04/28 01:14:06;;;;;;;6.75;5.22;;;;;;;11.84;71.32;99437.72;4977667;28;20041;-74
2022/04/28 01:16:32;;;;;;;13.07;5.50;;;;;;;11.73;71.63;99433.72;4995113;28;20026;-74
2022/04/28 01:18:59;;;;;;;10.55;5.63;;;;;;;11.47;72.40;99429.97;4982587;28;20437;-74
2022/04/28 01:21:25;;;;;;;14.38;6.57;;;;;;;11.76;71.44;99430.22;5014565;28;20018;-74
2022/04/28 01:23:51;;;;;;;9.85;5.78;;;;;;;12.12;70.31;99439.13;5008906;28;20477;-74
2022/04/28 01:26:16;;;;;;;8.80;5.60;;;;;;;11.79;70.83;99429.53;5014382;28;20091;-74
2022/04/28 01:28:42;;;;;;;8.25;5.90;;;;;;;11.51;72.27;99430.91;5013008;28;20112;-74
2022/04/28 01:31:07;;;;;;;7.88;5.97;;;;;;;11.55;72.60;99442.25;4977689;28;20087;-74
2022/04/28 01:33:33;;;;;;;8.20;5.60;;;;;;;11.44;72.80;99432.63;4994715;28;20050;-74
2022/04/28 01:35:59;;;;;;;8.80;5.90;;;;;;;11.26;73.77;99429.97;4977585;28;20424;-74
2022/04/28 01:38:25;;;;;;;15.18;6.45;;;;;;;11.37;73.18;99427.56;5004773;28;20080;-74
2022/04/28 01:40:52;;;;;;;6.95;5.88;;;;;;;11.50;73.57;99439.66;5013984;28;20052;-74
2022/04/28 01:43:17;;;;;;;12.57;6.50;;;;;;;11.41;73.64;99441.72;5012869;28;20033;-74
2022/04/28 01:45:43;;;;;;;10.20;5.97;;;;;;;11.16;74.10;99439.59;5014260;28;20080;-75
2022/04/28 01:48:09;;;;;;;15.15;7.07;;;;;;;10.98;75.47;99438.06;5009920;28;20030;-74
2022/04/28 01:50:35;;;;;;;11.30;6.70;;;;;;;11.19;74.64;99446.47;4977367;28;20473;-73
2022/04/28 01:55:44;;;;;;;11.82;6.75;;;;;;;10.77;77.07;99434.06;4993895;28;20425;-74
2022/04/28 01:58:10;;;;;;;9.98;6.55;;;;;;;10.79;76.92;99442.94;4992966;28;20038;-74
2022/04/28 02:00:35;;;;;;;10.85;6.00;;;;;;;11.03;75.46;99435.06;4994154;28;20029;-74
2022/04/28 02:03:01;;;;;;;9.43;5.50;;;;;;;11.26;74.99;99441.16;5013848;28;20100;-74
2022/04/28 02:05:26;;;;;;;21.67;7.18;;;;;;;11.00;75.64;99441.34;5013397;28;20041;-73
2022/04/28 02:07:52;;;;;;;16.73;6.85;;;;;;;10.94;76.15;99440.72;5005275;28;20030;-74
2022/04/28 02:10:18;;;;;;;9.20;6.35;;;;;;;11.43;74.62;99448.63;4994195;28;20437;-74
2022/04/28 02:12:43;;;;;;;8.23;5.78;;;;;;;11.62;72.80;99425.72;4993631;28;20023;-74
2022/04/28 02:15:09;;;;;;;18.15;10.18;;;;;;;11.64;72.96;99442.16;4991930;28;20481;-74
2022/04/28 02:17:37;;;;;;;19.17;11.73;;;;;;;11.58;73.48;99447.16;4995945;28;20025;-74
2022/04/28 02:20:05;;;;;;;19.15;9.75;;;;;;;11.84;72.66;99446.13;5013503;28;20026;-73
2022/04/28 02:22:31;;;;;;;7.75;6.35;;;;;;;11.92;71.98;99424.78;4988283;28;20028;-73
2022/04/28 02:24:57;;;;;;;10.70;6.38;;;;;;;12.28;70.93;99444.88;4994075;28;20154;-74
2022/04/28 02:27:24;;;;;;;11.27;5.90;;;;;;;11.94;72.18;99437.31;4998245;28;20057;-74
2022/04/28 02:29:52;;;;;;;7.75;5.63;;;;;;;11.90;71.79;99430.72;4976261;28;20126;-74
2022/04/28 02:32:18;;;;;;;8.73;6.18;;;;;;;12.03;71.88;99440.03;4976134;28;20065;-74
2022/04/28 02:34:43;;;;;;;15.80;6.10;;;;;;;12.14;71.99;99432.00;4993667;28;20030;-74
2022/04/28 02:37:09;;;;;;;10.18;5.32;;;;;;;12.41;69.98;99438.13;4997590;28;20050;-74
2022/04/28 02:39:35;;;;;;;12.50;5.28;;;;;;;12.42;69.93;99436.16;5012825;28;20034;-74
2022/04/28 02:42:00;;;;;;;8.23;5.32;;;;;;;12.02;71.03;99432.81;4994278;28;20555;-73
2022/04/28 02:44:26;;;;;;;10.60;6.72;;;;;;;11.32;73.66;99442.59;4992059;28;20026;-74
2022/04/28 02:46:52;;;;;;;8.98;5.65;;;;;;;11.32;74.76;99448.19;4994665;28;20504;-74
2022/04/28 02:49:17;;;;;;;9.48;5.32;;;;;;;11.64;73.99;99457.00;5013257;28;20504;-73
2022/04/28 02:51:44;;;;;;;8.73;5.68;;;;;;;11.92;72.24;99461.22;4995331;28;20393;-74
2022/04/28 02:54:10;;;;;;;11.60;6.28;;;;;;;11.72;73.21;99448.88;4991906;28;20038;-74
2022/04/28 02:56:35;;;;;;;9.40;5.80;;;;;;;11.56;73.85;99460.69;4975775;28;20165;-74
2022/04/28 02:59:01;;;;;;;8.60;5.90;;;;;;;11.52;73.95;99456.94;4993126;28;20046;-74
2022/04/28 03:01:27;;;;;;;9.63;5.57;;;;;;;11.55;74.01;99459.06;4992921;28;20101;-74
2022/04/28 03:03:53;;;;;;;9.80;6.15;;;;;;;11.42;74.47;99465.75;4993032;28;20030;-74
2022/04/28 03:11:50;;;;;;;11.32;6.68;;;;;;;10.77;78.07;99494.78;5012938;28;20037;-74
2022/04/28 03:14:21;;;;;;;10.00;5.88;;;;;;;10.66;78.18;99477.56;4998568;28;20049;-74
2022/04/28 03:16:46;;;;;;;;;;;;;;;10.93;77.52;99492.25;4986369;28;20026;-74
2022/04/28 03:19:12;;;;;;;10.27;6.82;;;;;;;10.98;77.81;99485.63;4994278;28;19912;-74
2022/04/28 03:21:37;;;;;;;19.85;8.50;;;;;;;11.22;76.84;99490.59;5012334;28;20026;-74
2022/04/28 03:24:04;;;;;;;9.35;6.43;;;;;;;11.21;76.57;99494.53;5011614;28;20022;-74
2022/04/28 03:26:30;;;;;;;18.00;6.78;;;;;;;10.81;77.79;99482.59;5012581;28;20463;-74
2022/04/28 03:28:56;;;;;;;16.77;8.80;;;;;;;10.93;78.48;99503.44;5008546;28;20026;-74
2022/04/28 03:31:22;;;;;;;13.55;8.35;;;;;;;11.09;77.55;99510.09;4997642;28;20033;-74
2022/04/28 03:33:48;;;;;;;13.63;8.65;;;;;;;11.15;77.99;99510.72;4992568;28;20034;-74
2022/04/28 03:38:58;;;;;;;22.58;9.57;;;;;;;11.11;78.80;99517.34;5006565;28;20049;-74
2022/04/28 03:41:24;;;;;;;32.88;11.43;;;;;;;11.16;79.52;99523.59;5010911;28;20042;-74
2022/04/28 03:43:49;;;;;;;14.43;10.27;;;;;;;11.26;78.82;99533.56;5009953;28;20026;-74
2022/04/28 03:46:15;;;;;;;16.00;9.75;;;;;;;11.47;78.55;99535.59;5004349;28;20030;-74
2022/04/28 03:48:42;;;;;;;17.88;9.82;;;;;;;11.63;77.06;99533.81;5006420;28;20101;-74
2022/04/28 03:51:07;;;;;;;25.55;9.88;;;;;;;11.83;76.37;99541.75;4990754;28;20031;-74
2022/04/28 03:53:33;;;;;;;17.48;9.15;;;;;;;11.69;76.65;99534.44;4992486;28;20421;-74
2022/04/28 03:55:59;;;;;;;18.30;10.43;;;;;;;11.80;76.08;99529.22;4992213;28;20038;-74
2022/04/28 03:58:28;;;;;;;19.20;9.23;;;;;;;12.10;75.49;99543.22;4992007;28;20026;-74
2022/04/28 04:00:54;;;;;;;14.70;9.82;;;;;;;12.36;74.39;99542.13;4991861;28;20097;-74
2022/04/28 04:03:20;;;;;;;13.65;7.40;;;;;;;12.37;74.07;99535.34;4992096;28;20080;-74
2022/04/28 04:05:46;;;;;;;15.52;8.57;;;;;;;12.33;73.21;99526.00;4974688;28;20034;-74
2022/04/28 04:08:12;;;;;;;16.10;8.43;;;;;;;12.58;73.26;99552.13;4974309;28;20034;-74
2022/04/28 04:10:38;;;;;;;11.30;8.73;;;;;;;12.48;73.79;99550.59;4994640;28;20112;-74
2022/04/28 04:13:04;;;;;;;14.55;8.30;;;;;;;12.75;73.27;99553.91;5000622;28;20054;-74
2022/04/28 04:15:30;;;;;;;15.52;7.50;;;;;;;12.81;72.17;99553.72;4974657;28;20095;-75
2022/04/28 04:17:55;;;;;;;17.65;9.32;;;;;;;12.76;72.47;99563.97;5010485;28;20026;-74
2022/04/28 04:20:21;;;;;;;17.20;8.45;;;;;;;12.85;72.02;99558.28;4982664;28;20026;-74
2022/04/28 04:22:47;;;;;;;24.05;9.05;;;;;;;13.00;71.49;99564.38;5004436;28;20092;-75
2022/04/28 04:25:12;;;;;;;17.13;8.30;;;;;;;12.70;72.53;99565.38;4993490;28;20033;-74
2022/04/28 04:27:38;;;;;;;16.42;8.25;;;;;;;13.02;71.50;99562.03;5008164;28;20057;-76
2022/04/28 04:32:17;;;;;;;13.80;8.48;;;;;;;12.97;71.87;99568.69;4994071;28;20038;-76
2022/04/28 04:32:50;;;;;;;14.02;8.00;;;;;;;12.57;72.41;99552.50;4992463;28;20414;-76
2022/04/28 04:35:16;;;;;;;28.55;8.48;;;;;;;12.63;72.93;99567.94;4994195;28;20113;-75
2022/04/28 04:37:42;;;;;;;16.30;8.52;;;;;;;12.47;73.42;99565.78;4995650;28;20496;-75
2022/04/28 04:40:10;;;;;;;11.40;8.13;;;;;;;12.25;74.12;99563.38;4995712;28;20033;-74
2022/04/28 04:42:35;;;;;;;15.23;7.63;;;;;;;12.80;72.77;99564.09;5001494;28;20097;-74
2022/04/28 04:45:01;;;;;;;12.05;7.63;;;;;;;13.14;71.79;99566.84;4995448;28;20045;-74
2022/04/28 04:47:26;;;;;;;20.65;6.78;;;;;;;13.45;70.22;99576.72;4978473;28;20108;-74
2022/04/28 04:49:52;;;;;;;17.25;7.70;;;;;;;13.62;69.28;99578.47;4994385;28;20023;-72
2022/04/28 04:52:17;;;;;;;12.57;6.57;;;;;;;13.62;68.19;99570.81;4981592;28;20468;-73
2022/04/28 04:54:43;;;;;;;11.68;5.65;;;;;;;13.97;67.48;99575.09;5015051;28;20021;-73
2022/04/28 04:57:08;;;;;;;31.92;7.35;;;;;;;14.04;66.38;99582.94;4980296;28;20370;-74
2022/04/28 04:59:34;;;;;;;42.80;9.20;;;;;;;14.44;66.01;99573.63;5002268;28;20096;-73
2022/04/28 05:01:59;;;;;;;12.07;6.53;;;;;;;14.13;65.74;99574.34;5007481;28;20045;-73
2022/04/28 05:04:25;;;;;;;14.52;7.47;;;;;;;14.31;64.61;99589.78;4985137;28;20041;-74
2022/04/28 05:06:50;;;;;;;14.50;6.72;;;;;;;14.42;65.03;99580.78;4984470;28;20026;-74
2022/04/28 05:09:16;;;;;;;10.57;5.88;;;;;;;14.42;64.98;99597.69;5014628;28;20029;-73
2022/04/28 05:11:42;;;;;;;14.13;5.85;;;;;;;14.65;64.16;99586.69;4996684;28;20030;-73
2022/04/28 05:14:07;;;;;;;9.60;5.78;;;;;;;14.73;63.86;99596.16;5009313;28;20629;-74
2022/04/28 05:16:33;;;;;;;14.82;5.03;;;;;;;14.79;64.14;99560.94;5006125;28;20014;-76
2022/04/28 05:18:59;;;;;;;9.40;4.80;;;;;;;15.26;63.06;99595.94;4994611;28;20112;-75
2022/04/28 05:21:24;;;;;;;12.32;5.40;;;;;;;15.42;61.42;99598.75;4990815;28;20018;-73
2022/04/28 05:23:50;;;;;;;12.82;5.75;;;;;;;15.11;62.00;99589.13;4998648;28;20508;-74
2022/04/28 05:26:15;;;;;;;13.82;5.78;;;;;;;14.29;64.55;99586.47;4995070;28;20030;-73
2022/04/28 05:28:41;;;;;;;12.40;5.82;;;;;;;14.17;65.80;99592.97;4977448;28;20023;-74
2022/04/28 05:31:06;;;;;;;9.48;5.43;;;;;;;14.42;65.15;99598.50;4977937;28;20116;-75
2022/04/28 05:33:32;;;;;;;12.23;5.43;;;;;;;14.60;64.99;99598.22;4995200;28;20478;-77
2022/04/28 05:35:59;;;;;;;10.43;5.35;;;;;;;14.64;65.77;99603.91;4998939;28;20476;-76
2022/04/28 05:38:25;;;;;;;8.27;5.20;;;;;;;14.81;64.96;99608.44;5001823;28;20490;-78
2022/04/28 05:40:51;;;;;;;14.27;6.93;;;;;;;14.46;66.44;99607.88;4993864;28;20098;-76
2022/04/28 05:46:00;;;;;;;10.63;5.63;;;;;;;14.11;69.15;99605.63;5013415;28;20399;-77
2022/04/28 05:48:26;;;;;;;9.40;5.43;;;;;;;14.40;67.98;99608.47;5002988;28;20030;-83
2022/04/28 05:50:52;;;;;;;9.23;5.60;;;;;;;14.44;68.54;99613.03;4977055;28;20022;-77
2022/04/28 05:53:18;;;;;;;6.75;5.60;;;;;;;14.63;66.95;99608.75;5005782;28;20116;-75
2022/04/28 05:55:43;;;;;;;13.38;6.60;;;;;;;14.77;66.88;99611.16;5006656;28;20129;-74
2022/04/28 05:58:09;;;;;;;10.05;5.95;;;;;;;14.93;66.96;99610.38;4996674;28;20026;-83
2022/04/28 06:00:35;;;;;;;17.40;7.03;;;;;;;15.02;66.60;99609.03;5001520;28;20110;-72
2022/04/28 06:03:01;;;;;;;9.13;6.05;;;;;;;15.28;65.34;99612.50;4998105;28;20030;-75
2022/04/28 06:05:27;;;;;;;11.30;6.05;;;;;;;15.41;64.95;99608.41;4984038;28;20448;-74
2022/04/28 06:07:53;;;;;;;9.40;5.72;;;;;;;15.47;65.34;99606.13;4982292;28;20030;-71
2022/04/28 06:10:19;;;;;;;11.55;6.18;;;;;;;15.64;63.77;99604.91;4996745;28;20072;-71
2022/04/28 06:12:45;;;;;;;10.00;5.82;;;;;;;15.89;62.37;99598.22;5009723;28;20444;-79
2022/04/28 06:15:11;;;;;;;11.02;5.60;;;;;;;16.06;61.92;99614.75;5002421;28;20068;-81
2022/04/28 06:17:37;;;;;;;9.68;6.03;;;;;;;16.22;61.04;99611.84;4985082;28;20027;-76
2022/04/28 06:20:04;;;;;;;11.80;5.68;;;;;;;16.28;60.49;99615.22;5010519;28;20488;-73
2022/04/28 06:22:29;;;;;;;10.65;5.50;;;;;;;16.45;60.44;99610.31;5001357;28;20030;-75
2022/04/28 06:24:56;;;;;;;9.10;4.82;;;;;;;16.74;58.96;99619.34;5003032;28;20390;-75
2022/04/28 06:27:22;;;;;;;6.93;5.03;;;;;;;16.67;58.73;99622.88;4999808;28;20036;-73
2022/04/28 06:29:49;;;;;;;8.32;5.45;;;;;;;16.53;59.36;99609.25;4981628;28;20021;-73
2022/04/28 06:32:18;;;;;;;13.48;5.25;;;;;;;16.49;59.52;99614.03;5011630;28;20029;-74
2022/04/28 06:34:47;;;;;;;11.45;5.45;;;;;;;16.55;58.10;99612.56;5008100;28;20097;-76
2022/04/28 06:37:14;;;;;;;8.93;5.25;;;;;;;16.68;58.24;99611.19;4998819;28;20045;-73
2022/04/28 06:39:41;;;;;;;11.60;4.78;;;;;;;16.74;56.70;99619.34;5011016;28;20034;-72
2022/04/28 06:42:07;;;;;;;13.27;5.75;;;;;;;16.78;55.42;99615.41;4991433;28;20025;-73
2022/04/28 06:44:33;;;;;;;8.57;4.32;;;;;;;16.81;55.25;99619.50;4995059;28;20025;-72
2022/04/28 06:46:59;;;;;;;14.07;4.82;;;;;;;16.70;55.82;99619.28;4995422;28;20030;-72
2022/04/28 06:49:25;;;;;;;9.68;4.70;;;;;;;16.50;56.23;99619.31;5007380;28;20026;-73
2022/04/28 06:51:51;;;;;;;14.57;4.75;;;;;;;16.59;56.49;99610.63;5012427;28;20029;-72
2022/04/28 06:54:16;;;;;;;14.57;3.80;;;;;;;16.62;55.69;99617.53;5011826;28;20022;-73
2022/04/28 06:56:42;;;;;;;6.40;4.78;;;;;;;16.94;54.97;99611.66;4993229;28;20084;-72
2022/04/28 06:59:07;;;;;;;5.72;4.00;;;;;;;17.08;55.01;99611.16;4995098;28;20025;-74
2022/04/28 07:01:33;;;;;;;10.25;3.90;;;;;;;17.13;53.49;99616.47;4983470;28;20050;-73
2022/04/28 07:03:58;;;;;;;8.98;4.35;;;;;;;17.22;53.43;99614.22;4993005;28;20018;-74
2022/04/28 07:06:24;;;;;;;9.60;4.70;;;;;;;17.21;53.68;99611.78;4997554;28;20041;-73
2022/04/28 07:08:50;;;;;;;9.88;4.93;;;;;;;17.46;53.22;99620.69;4989541;28;20050;-72
2022/04/28 07:11:15;;;;;;;7.38;4.00;;;;;;;17.58;52.24;99616.03;4998491;28;20076;-73
2022/04/28 07:13:41;;;;;;;5.22;3.50;;;;;;;17.54;49.83;99611.13;5000575;28;20465;-74
2022/04/28 07:16:07;;;;;;;8.45;3.25;;;;;;;17.89;50.07;99612.06;5012791;28;20552;-73
2022/04/28 07:18:32;;;;;;;9.43;3.97;;;;;;;17.87;49.71;99610.81;5010050;28;20025;-73
2022/04/28 07:21:02;;;;;;;11.07;3.95;;;;;;;17.82;51.10;99612.75;5011616;28;20036;-74
2022/04/28 07:23:27;;;;;;;6.40;3.60;;;;;;;18.23;49.81;99600.03;4986739;28;20030;-73
2022/04/28 07:25:53;;;;;;;6.93;3.92;;;;;;;18.27;48.98;99611.38;4981979;28;20041;-73
2022/04/28 07:28:18;;;;;;;5.57;3.67;;;;;;;18.26;49.42;99615.41;4988039;28;20030;-74
2022/04/28 07:30:44;;;;;;;10.20;3.47;;;;;;;18.42;47.75;99609.56;4975743;28;20092;-73
2022/04/28 07:33:11;;;;;;;9.95;3.40;;;;;;;18.57;47.07;99602.06;4992519;28;20014;-72
2022/04/28 07:35:36;;;;;;;5.28;3.92;;;;;;;18.23;47.65;99600.84;5008226;28;20032;-76
2022/04/28 07:38:03;;;;;;;12.23;3.95;;;;;;;18.58;47.27;99610.19;4989612;28;20770;-75
2022/04/28 07:40:29;;;;;;;6.28;3.22;;;;;;;18.52;46.64;99603.22;4984430;28;20125;-74
2022/04/28 07:42:56;;;;;;;10.20;3.35;;;;;;;18.63;46.73;99607.00;4975138;28;20493;-71
2022/04/28 07:45:22;;;;;;;6.72;3.75;;;;;;;18.73;48.28;99602.63;4980861;28;20079;-76
2022/04/28 07:47:49;;;;;;;8.57;3.72;;;;;;;18.42;47.98;99604.72;5007494;28;20068;-74
2022/04/28 07:50:14;;;;;;;9.90;4.32;;;;;;;18.01;49.48;99599.72;5010958;28;20067;-74
2022/04/28 07:52:40;;;;;;;5.35;4.13;;;;;;;17.90;49.08;99598.75;5011266;28;20022;-73
2022/04/28 07:55:06;;;;;;;6.95;3.70;;;;;;;18.65;49.44;99593.25;5009275;28;20022;-74
2022/04/28 07:57:32;;;;;;;3.95;3.22;;;;;;;18.41;47.60;99590.94;5005928;28;20097;-74
2022/04/28 07:59:58;;;;;;;6.30;3.50;;;;;;;18.57;48.14;99602.06;5011760;28;20025;-73
2022/04/28 08:02:23;;;;;;;9.63;4.28;;;;;;;18.83;47.75;99583.31;4987100;28;20409;-73
2022/04/28 08:04:49;;;;;;;7.55;3.55;;;;;;;19.29;47.90;99599.16;5002116;28;20559;-73
2022/04/28 08:07:15;;;;;;;9.88;3.70;;;;;;;19.33;46.63;99597.19;5001867;28;20393;-74
2022/04/28 08:09:40;;;;;;;7.00;3.40;;;;;;;19.43;45.96;99587.97;4991623;28;20058;-73
2022/04/28 08:12:06;;;;;;;9.07;3.17;;;;;;;19.58;46.11;99597.38;4975064;28;20388;-73
2022/04/28 08:14:32;;;;;;;10.63;3.30;;;;;;;19.74;45.54;99593.44;4974533;28;20569;-73
2022/04/28 08:16:58;;;;;;;8.02;4.13;;;;;;;19.70;46.04;99576.41;4993416;28;20077;-74
2022/04/28 08:19:24;;;;;;;7.95;3.10;;;;;;;20.04;45.22;99592.44;4990288;28;20551;-74
2022/04/28 08:21:50;;;;;;;6.60;3.75;;;;;;;19.82;45.56;99572.41;4987044;28;20088;-73
2022/04/28 08:24:16;;;;;;;7.18;4.15;;;;;;;19.84;44.21;99591.88;4978930;28;20026;-74
2022/04/28 08:26:42;;;;;;;15.18;4.28;;;;;;;19.83;44.97;99593.09;4991723;28;20041;-74
2022/04/28 08:29:08;;;;;;;9.68;3.70;;;;;;;19.63;44.92;99576.34;4991648;28;20026;-74
2022/04/28 08:31:34;;;;;;;10.57;3.00;;;;;;;19.83;44.42;99584.59;4976863;28;20544;-74
2022/04/28 08:34:00;;;;;;;5.75;3.05;;;;;;;19.59;45.21;99586.84;4990444;28;20409;-74
2022/04/28 08:36:25;;;;;;;8.85;2.92;;;;;;;19.01;46.07;99586.38;4992881;28;20026;-73
2022/04/28 08:38:52;;;;;;;9.38;4.43;;;;;;;19.09;47.76;99582.41;5004515;28;20030;-73
2022/04/28 08:41:47;;;;;;;12.23;3.85;;;;;;;19.33;46.84;99586.66;4994084;28;20389;-75
2022/04/28 08:44:24;;;;;;;4.30;2.90;;;;;;;19.71;44.69;99578.03;5002739;28;20041;-74
2022/04/28 08:46:52;;;;;;;8.00;3.45;;;;;;;19.82;45.15;99591.47;5005777;28;20060;-74
2022/04/28 08:49:22;;;;;;;6.47;3.25;;;;;;;19.58;45.11;99588.06;5007018;28;20091;-74
2022/04/28 08:51:49;;;;;;;;;;;;;;;19.74;45.35;99587.78;5002983;28;20037;-74
2022/04/28 08:54:15;;;;;;;6.95;3.60;;;;;;;19.91;45.51;99563.56;4990343;28;20052;-74
2022/04/28 08:56:40;;;;;;;7.57;4.00;;;;;;;19.91;44.82;99575.72;4996482;28;20105;-74
2022/04/28 08:59:07;;;;;;;10.77;4.13;;;;;;;20.50;44.69;99587.38;4997947;28;20672;-75
2022/04/28 09:01:34;;;;;;;8.68;3.25;;;;;;;20.35;44.46;99584.50;4978377;28;20022;-73
2022/04/28 09:04:02;;;;;;;6.18;3.83;;;;;;;20.50;44.23;99578.84;4986219;28;20031;-72
2022/04/28 09:06:30;;;;;;;9.30;3.30;;;;;;;20.47;43.80;99577.63;4991161;28;20030;-73
2022/04/28 09:08:57;;;;;;;4.93;2.63;;;;;;;20.58;42.95;99574.84;4991735;28;20028;-73
2022/04/28 09:11:28;;;;;;;9.75;2.92;;;;;;;20.61;42.75;99577.66;4991471;28;20037;-73
2022/04/28 09:14:11;;;;;;;48.42;6.45;;;;;;;20.35;42.50;99561.75;5009342;28;20026;-74
2022/04/28 09:16:49;;;;;;;7.78;3.05;;;;;;;20.66;42.29;99572.81;4981318;28;20519;-72
2022/04/28 09:19:38;;;;;;;8.20;2.97;;;;;;;21.06;42.47;99573.72;5006700;28;20065;-73
2022/04/28 09:22:13;;;;;;;9.07;3.75;;;;;;;20.67;43.70;99563.06;4998086;28;20424;-73
2022/04/28 09:24:46;;;;;;;5.63;3.30;;;;;;;21.04;43.17;99564.78;4996971;28;20022;-73
2022/04/28 09:27:13;;;;;;;12.02;4.13;;;;;;;20.83;43.39;99560.69;4997036;28;20025;-72
2022/04/28 09:29:41;;;;;;;7.55;3.42;;;;;;;20.02;43.50;99546.59;4993661;28;20460;-73
2022/04/28 09:32:10;;;;;;;6.13;2.97;;;;;;;20.15;43.82;99553.56;4977459;28;20026;-72
2022/04/28 09:34:46;;;;;;;5.43;3.63;;;;;;;20.31;44.30;99556.06;4994927;28;20032;-73
2022/04/28 09:37:19;;;;;;;8.88;3.63;;;;;;;19.93;43.83;99549.81;4994905;28;20046;-73
2022/04/28 09:42:39;;;;;;;6.53;3.55;;;;;;;20.98;43.06;99549.34;4994719;28;20467;-73
2022/04/28 09:45:06;;;;;;;7.72;3.92;;;;;;;20.84;43.39;99555.84;4996528;28;20018;-73
2022/04/28 09:47:32;;;;;;;47.05;4.88;;;;;;;20.71;43.72;99550.50;5005798;28;20523;-75
2022/04/28 09:49:58;;;;;;;6.90;3.10;;;;;;;21.02;42.58;99553.81;5008803;28;20101;-73
2022/04/28 09:52:24;;;;;;;11.20;3.83;;;;;;;21.24;42.30;99555.88;5003323;28;20459;-74
2022/04/28 09:54:56;;;;;;;5.03;3.75;;;;;;;21.20;42.43;99540.81;4994777;28;20030;-73
2022/04/28 09:57:47;;;;;;;6.50;3.85;;;;;;;20.60;44.65;99544.78;4977222;28;20022;-73
2022/04/28 10:00:13;;;;;;;40.28;5.85;;;;;;;20.70;43.47;99528.16;5013494;28;20018;-72
2022/04/28 10:02:38;;;;;;;11.15;4.22;;;;;;;21.27;43.11;99538.78;4996273;28;20409;-73
2022/04/28 10:05:05;;;;;;;7.00;3.45;;;;;;;21.79;42.12;99533.88;5003412;28;20033;-75
2022/04/28 10:07:32;;;;;;;10.85;3.95;;;;;;;21.88;40.99;99525.72;4990654;28;20496;-76
2022/04/28 10:09:57;;;;;;;7.60;4.10;;;;;;;21.23;43.35;99520.94;4994094;28;20034;-77
2022/04/28 10:12:27;;;;;;;7.82;3.45;;;;;;;21.63;42.20;99509.50;4982799;28;20476;-76
2022/04/28 10:14:54;;;;;;;14.15;3.50;;;;;;;21.91;41.51;99510.66;4984138;28;20019;-77
2022/04/28 10:17:33;;;;;;;9.45;4.22;;;;;;;22.26;41.00;99506.03;4995372;28;20053;-76
2022/04/28 10:20:08;;;;;;;8.02;3.70;;;;;;;22.49;39.33;99513.28;4976065;28;20034;-73
2022/04/28 10:22:35;;;;;;;9.82;3.33;;;;;;;22.63;40.52;99518.09;4998600;28;20382;-74
2022/04/28 10:33:26;;;;;;;11.25;4.15;;;;;;;21.62;42.62;99512.75;4993868;28;20116;-78
2022/04/28 10:35:54;;;;;;;7.43;4.30;;;;;;;21.98;41.53;99522.03;5011149;28;20036;-76
2022/04/28 10:38:30;;;;;;;12.23;4.45;;;;;;;22.08;40.98;99511.00;4999021;28;20494;-76
2022/04/28 10:41:10;;;;;;;11.35;4.13;;;;;;;21.99;42.18;99511.44;4998067;28;20057;-76
2022/04/28 10:43:41;;;;;;;8.90;4.40;;;;;;;22.07;41.40;99510.19;4976619;28;20033;-76
2022/04/28 10:46:06;;;;;;;7.55;4.60;;;;;;;22.26;41.41;99533.69;4986253;28;20141;-76
2022/04/28 10:48:35;;;;;;;10.75;4.57;;;;;;;22.30;40.91;99535.31;4982875;28;20495;-78
2022/04/28 10:51:17;;;;;;;12.23;4.00;;;;;;;22.21;41.05;99534.97;5007457;28;20058;-75
2022/04/28 10:54:06;;;;;;;7.78;4.40;;;;;;;22.11;41.84;99515.88;4981500;28;20026;-75
2022/04/28 10:57:01;;;;;;;6.87;4.60;;;;;;;21.87;42.82;99524.09;4995017;28;20022;-74
2022/04/28 10:59:27;;;;;;;6.18;4.47;;;;;;;21.99;42.49;99523.66;5007311;28;20027;-76
2022/04/28 11:01:53;;;;;;;10.75;4.38;;;;;;;22.07;41.64;99504.50;4993944;28;20117;-73
2022/04/28 11:04:24;;;;;;;9.23;4.65;;;;;;;22.12;41.71;99500.41;4985935;28;20084;-74
2022/04/28 11:06:54;;;;;;;8.27;4.53;;;;;;;22.56;41.81;99493.28;5004766;28;20128;-73
2022/04/28 11:09:55;;;;;;;29.20;5.60;;;;;;;23.00;40.99;99498.66;4999492;28;20044;-74
2022/04/28 11:12:22;;;;;;;7.53;4.28;;;;;;;22.91;41.17;99504.03;5000023;28;20046;-76
2022/04/28 11:14:52;;;;;;;11.35;4.93;;;;;;;22.22;41.77;99493.03;4999291;28;20030;-72
2022/04/28 11:17:21;;;;;;;14.70;4.07;;;;;;;22.49;41.70;99489.66;4987888;28;20033;-73
2022/04/28 11:19:47;;;;;;;7.53;4.32;;;;;;;22.55;40.23;99488.78;4983070;28;20034;-74
2022/04/28 11:22:13;;;;;;;8.95;4.22;;;;;;;22.60;41.02;99490.41;4992602;28;20025;-74
2022/04/28 11:24:42;;;;;;;6.70;3.92;;;;;;;22.87;40.37;99498.38;5002427;28;20033;-73
2022/04/28 11:27:12;;;;;;;6.07;4.60;;;;;;;22.98;39.20;99501.94;5003226;28;20528;-73
2022/04/28 11:29:39;;;;;;;;;;;;;;;23.18;40.02;99501.38;4976188;28;20712;-73
2022/04/28 11:32:08;;;;;;;14.48;4.55;;;;;;;23.22;40.08;99509.91;4994832;28;20392;-73
2022/04/28 11:34:34;;;;;;;8.20;3.90;;;;;;;23.18;38.63;99504.22;5007133;28;20100;-74
2022/04/28 11:37:13;;;;;;;10.30;4.82;;;;;;;23.13;39.31;99498.97;4991089;28;20062;-74
2022/04/28 11:39:39;;;;;;;8.63;4.43;;;;;;;23.11;39.34;99495.75;4974671;28;20082;-73
2022/04/28 11:42:09;;;;;;;14.10;4.35;;;;;;;23.23;38.58;99488.69;4992387;28;20030;-74
2022/04/28 11:44:34;;;;;;;;;;;;;;;23.10;38.55;99494.91;4990565;28;20498;-73
2022/04/28 11:47:01;;;;;;;11.88;4.68;;;;;;;23.22;38.74;99498.47;5002394;28;19925;-74
2022/04/28 11:49:33;;;;;;;10.65;4.93;;;;;;;22.91;38.95;99498.31;4981607;28;20026;-72
2022/04/28 11:52:15;;;;;;;13.48;4.32;;;;;;;23.03;38.52;99502.72;5005608;28;20107;-76
2022/04/28 11:54:41;;;;;;;11.02;4.88;;;;;;;23.38;37.96;99492.25;4993554;28;20725;-74
2022/04/28 11:57:09;;;;;;;14.05;5.22;;;;;;;23.40;38.53;99496.28;5011012;28;20029;-74